You are not logged in, Click here to log in
蘇萬那普國際機場(曼谷國際機場) BKK / VTBS 泰國曼谷以東25公里北欖府Bang Phli區
ICAO: VTBS Country: 泰國曼谷以東25公里北欖府Bang Phli區
Latitude: 13.69 Longitude: 100.75
Total Arrivals: 53 Total Departures: 51
Latest Arrival: TG48436 (WIII-VTBS)KA HOU. CHAN Latest Departure: NX885 (VTBS-VMMC)KA HOU. CHAN
Scenery:
METAR : VTBS 110430Z 26005KT 200V320 9999 FEW020 33/22 Q1007 NOSIG

蘇萬那普國際機場(曼谷國際機場) BKK

You are accessing this site from IP address 34.229.119.29. Virtual Airline. CMS by phpVMS.Website designed by Zumeweb and edited by Theo Bearman.
There is 1 User(s) Online: | Lun Wang | and 16 Guest(s) Online.
All information on this site is for fight simulation purposes only. This site is for flight logging for pilots of Virtual Airline&模擬飛行論壇 FlySim only.